sensor_id;sensor_type;location;lat;lon;timestamp;temperature;humidity
3001;DHT22;1510;51.072;6.678;2023-02-17T00:01:31;11.00;99.90
3001;DHT22;1510;51.072;6.678;2023-02-17T00:03:59;11.00;99.90
3001;DHT22;1510;51.072;6.678;2023-02-17T00:06:28;11.00;99.90
3001;DHT22;1510;51.072;6.678;2023-02-17T00:08:55;11.00;99.90
3001;DHT22;1510;51.072;6.678;2023-02-17T00:11:22;11.00;99.90
3001;DHT22;1510;51.072;6.678;2023-02-17T00:13:50;11.00;99.90
3001;DHT22;1510;51.072;6.678;2023-02-17T00:16:21;11.00;99.90
3001;DHT22;1510;51.072;6.678;2023-02-17T00:18:52;11.00;99.90
3001;DHT22;1510;51.072;6.678;2023-02-17T00:21:21;11.10;99.90
3001;DHT22;1510;51.072;6.678;2023-02-17T00:23:49;11.00;99.90
3001;DHT22;1510;51.072;6.678;2023-02-17T00:26:16;11.00;99.90
3001;DHT22;1510;51.072;6.678;2023-02-17T00:28:43;11.10;99.90
3001;DHT22;1510;51.072;6.678;2023-02-17T00:31:13;11.00;99.90
3001;DHT22;1510;51.072;6.678;2023-02-17T00:33:41;11.10;99.90
3001;DHT22;1510;51.072;6.678;2023-02-17T00:36:11;11.10;99.90
3001;DHT22;1510;51.072;6.678;2023-02-17T00:38:38;11.00;99.90
3001;DHT22;1510;51.072;6.678;2023-02-17T00:41:05;11.00;99.90
3001;DHT22;1510;51.072;6.678;2023-02-17T00:43:32;11.00;99.90
3001;DHT22;1510;51.072;6.678;2023-02-17T00:45:59;11.00;99.90
3001;DHT22;1510;51.072;6.678;2023-02-17T00:48:28;11.00;99.90
3001;DHT22;1510;51.072;6.678;2023-02-17T00:50:56;11.00;99.90
3001;DHT22;1510;51.072;6.678;2023-02-17T00:53:23;11.00;99.90
3001;DHT22;1510;51.072;6.678;2023-02-17T00:55:50;11.00;99.90
3001;DHT22;1510;51.072;6.678;2023-02-17T00:58:17;11.00;99.90
3001;DHT22;1510;51.072;6.678;2023-02-17T01:00:43;11.00;99.90
3001;DHT22;1510;51.072;6.678;2023-02-17T01:03:10;10.90;99.90
3001;DHT22;1510;51.072;6.678;2023-02-17T01:05:40;11.00;99.90
3001;DHT22;1510;51.072;6.678;2023-02-17T01:08:08;11.00;99.90
3001;DHT22;1510;51.072;6.678;2023-02-17T01:10:36;10.90;99.90
3001;DHT22;1510;51.072;6.678;2023-02-17T01:13:03;11.00;99.90
3001;DHT22;1510;51.072;6.678;2023-02-17T01:15:30;11.00;99.90
3001;DHT22;1510;51.072;6.678;2023-02-17T01:17:57;11.00;99.90
3001;DHT22;1510;51.072;6.678;2023-02-17T01:20:24;11.00;99.90
3001;DHT22;1510;51.072;6.678;2023-02-17T01:22:52;11.00;99.90
3001;DHT22;1510;51.072;6.678;2023-02-17T01:25:20;11.00;99.90
3001;DHT22;1510;51.072;6.678;2023-02-17T01:27:46;11.00;99.90
3001;DHT22;1510;51.072;6.678;2023-02-17T01:30:13;11.00;99.90
3001;DHT22;1510;51.072;6.678;2023-02-17T01:32:40;11.00;99.90
3001;DHT22;1510;51.072;6.678;2023-02-17T01:35:07;11.00;99.90
3001;DHT22;1510;51.072;6.678;2023-02-17T01:37:34;11.00;99.90
3001;DHT22;1510;51.072;6.678;2023-02-17T01:40:00;11.00;99.90
3001;DHT22;1510;51.072;6.678;2023-02-17T01:42:28;11.00;99.90
3001;DHT22;1510;51.072;6.678;2023-02-17T01:45:31;10.90;99.90
3001;DHT22;1510;51.072;6.678;2023-02-17T01:48:00;10.90;99.90
3001;DHT22;1510;51.072;6.678;2023-02-17T01:50:31;10.90;99.90
3001;DHT22;1510;51.072;6.678;2023-02-17T01:53:00;10.90;99.90
3001;DHT22;1510;51.072;6.678;2023-02-17T01:55:28;10.90;99.90
3001;DHT22;1510;51.072;6.678;2023-02-17T01:58:02;10.80;99.90
3001;DHT22;1510;51.072;6.678;2023-02-17T02:00:31;10.90;99.90
3001;DHT22;1510;51.072;6.678;2023-02-17T02:02:59;10.90;99.90
3001;DHT22;1510;51.072;6.678;2023-02-17T02:05:27;10.90;99.90
3001;DHT22;1510;51.072;6.678;2023-02-17T02:07:55;10.90;99.90
3001;DHT22;1510;51.072;6.678;2023-02-17T02:10:22;10.90;99.90
3001;DHT22;1510;51.072;6.678;2023-02-17T02:12:49;10.90;99.90
3001;DHT22;1510;51.072;6.678;2023-02-17T02:15:19;10.90;99.90
3001;DHT22;1510;51.072;6.678;2023-02-17T02:18:01;10.90;99.90
3001;DHT22;1510;51.072;6.678;2023-02-17T02:23:46;10.90;99.90
3001;DHT22;1510;51.072;6.678;2023-02-17T02:26:44;10.90;99.90
3001;DHT22;1510;51.072;6.678;2023-02-17T02:32:28;10.90;99.90
3001;DHT22;1510;51.072;6.678;2023-02-17T02:35:06;10.90;99.90
3001;DHT22;1510;51.072;6.678;2023-02-17T02:37:38;10.90;99.90
3001;DHT22;1510;51.072;6.678;2023-02-17T02:40:08;10.90;99.90
3001;DHT22;1510;51.072;6.678;2023-02-17T02:42:37;10.80;99.90
3001;DHT22;1510;51.072;6.678;2023-02-17T02:45:05;10.90;99.90
3001;DHT22;1510;51.072;6.678;2023-02-17T02:47:52;10.80;99.90
3001;DHT22;1510;51.072;6.678;2023-02-17T02:50:24;10.80;99.90
3001;DHT22;1510;51.072;6.678;2023-02-17T02:53:01;10.80;99.90
3001;DHT22;1510;51.072;6.678;2023-02-17T02:55:40;10.80;99.90
3001;DHT22;1510;51.072;6.678;2023-02-17T02:58:15;10.80;99.90
3001;DHT22;1510;51.072;6.678;2023-02-17T03:00:49;10.80;99.90
3001;DHT22;1510;51.072;6.678;2023-02-17T03:03:22;10.80;99.90
3001;DHT22;1510;51.072;6.678;2023-02-17T03:05:58;10.80;99.90
3001;DHT22;1510;51.072;6.678;2023-02-17T03:08:30;11.00;99.90
3001;DHT22;1510;51.072;6.678;2023-02-17T03:10:59;11.00;99.90
3001;DHT22;1510;51.072;6.678;2023-02-17T03:13:26;11.00;99.90
3001;DHT22;1510;51.072;6.678;2023-02-17T03:15:53;11.00;99.90
3001;DHT22;1510;51.072;6.678;2023-02-17T03:18:21;10.90;99.90
3001;DHT22;1510;51.072;6.678;2023-02-17T03:20:52;10.90;99.90
3001;DHT22;1510;51.072;6.678;2023-02-17T03:23:20;11.00;99.90
3001;DHT22;1510;51.072;6.678;2023-02-17T03:25:47;10.80;99.90
3001;DHT22;1510;51.072;6.678;2023-02-17T03:28:14;10.80;99.90
3001;DHT22;1510;51.072;6.678;2023-02-17T03:30:41;10.80;99.90
3001;DHT22;1510;51.072;6.678;2023-02-17T03:33:07;10.80;99.90
3001;DHT22;1510;51.072;6.678;2023-02-17T03:35:35;10.80;99.90
3001;DHT22;1510;51.072;6.678;2023-02-17T03:38:02;10.80;99.90
3001;DHT22;1510;51.072;6.678;2023-02-17T03:40:29;10.90;99.90
3001;DHT22;1510;51.072;6.678;2023-02-17T03:42:57;10.80;99.90
3001;DHT22;1510;51.072;6.678;2023-02-17T03:45:23;10.90;99.90
3001;DHT22;1510;51.072;6.678;2023-02-17T03:47:50;10.80;99.90
3001;DHT22;1510;51.072;6.678;2023-02-17T03:50:17;10.90;99.90
3001;DHT22;1510;51.072;6.678;2023-02-17T03:52:45;10.90;99.90
3001;DHT22;1510;51.072;6.678;2023-02-17T03:55:12;10.90;99.90
3001;DHT22;1510;51.072;6.678;2023-02-17T03:57:39;11.00;99.90
3001;DHT22;1510;51.072;6.678;2023-02-17T04:00:07;11.00;99.90
3001;DHT22;1510;51.072;6.678;2023-02-17T04:02:34;11.00;99.90
3001;DHT22;1510;51.072;6.678;2023-02-17T04:05:01;11.10;99.90
3001;DHT22;1510;51.072;6.678;2023-02-17T04:07:28;11.00;99.90
3001;DHT22;1510;51.072;6.678;2023-02-17T04:09:56;11.00;99.90
3001;DHT22;1510;51.072;6.678;2023-02-17T04:12:22;11.00;99.90
3001;DHT22;1510;51.072;6.678;2023-02-17T04:14:49;11.00;99.90
3001;DHT22;1510;51.072;6.678;2023-02-17T04:17:16;10.90;99.90
3001;DHT22;1510;51.072;6.678;2023-02-17T04:19:43;11.00;99.90
3001;DHT22;1510;51.072;6.678;2023-02-17T04:22:09;11.10;99.90
3001;DHT22;1510;51.072;6.678;2023-02-17T04:24:36;11.10;99.90
3001;DHT22;1510;51.072;6.678;2023-02-17T04:27:04;11.00;99.90
3001;DHT22;1510;51.072;6.678;2023-02-17T04:29:32;11.10;99.90
3001;DHT22;1510;51.072;6.678;2023-02-17T04:31:59;11.20;99.90
3001;DHT22;1510;51.072;6.678;2023-02-17T04:34:25;11.10;99.90
3001;DHT22;1510;51.072;6.678;2023-02-17T04:36:52;11.20;99.90
3001;DHT22;1510;51.072;6.678;2023-02-17T04:39:19;11.00;99.90
3001;DHT22;1510;51.072;6.678;2023-02-17T04:41:46;11.10;99.90
3001;DHT22;1510;51.072;6.678;2023-02-17T04:44:14;11.10;99.90
3001;DHT22;1510;51.072;6.678;2023-02-17T04:46:41;11.10;99.90
3001;DHT22;1510;51.072;6.678;2023-02-17T04:49:08;11.10;99.90
3001;DHT22;1510;51.072;6.678;2023-02-17T04:51:35;11.10;99.90
3001;DHT22;1510;51.072;6.678;2023-02-17T04:54:01;11.10;99.90
3001;DHT22;1510;51.072;6.678;2023-02-17T04:56:28;11.10;99.90
3001;DHT22;1510;51.072;6.678;2023-02-17T04:58:55;11.10;99.90
3001;DHT22;1510;51.072;6.678;2023-02-17T05:01:23;11.20;99.90
3001;DHT22;1510;51.072;6.678;2023-02-17T05:03:50;11.20;99.90
3001;DHT22;1510;51.072;6.678;2023-02-17T05:06:16;11.20;99.90
3001;DHT22;1510;51.072;6.678;2023-02-17T05:08:43;11.30;99.90
3001;DHT22;1510;51.072;6.678;2023-02-17T05:11:12;11.30;99.90
3001;DHT22;1510;51.072;6.678;2023-02-17T05:13:39;11.30;99.90
3001;DHT22;1510;51.072;6.678;2023-02-17T05:16:06;11.30;99.90
3001;DHT22;1510;51.072;6.678;2023-02-17T05:18:34;11.30;99.90
3001;DHT22;1510;51.072;6.678;2023-02-17T05:21:00;11.30;99.90
3001;DHT22;1510;51.072;6.678;2023-02-17T05:23:27;11.30;99.90
3001;DHT22;1510;51.072;6.678;2023-02-17T05:25:54;11.30;99.90
3001;DHT22;1510;51.072;6.678;2023-02-17T05:28:21;11.30;99.90
3001;DHT22;1510;51.072;6.678;2023-02-17T05:30:48;11.40;99.90
3001;DHT22;1510;51.072;6.678;2023-02-17T05:33:15;11.30;99.90
3001;DHT22;1510;51.072;6.678;2023-02-17T05:35:43;11.30;99.90
3001;DHT22;1510;51.072;6.678;2023-02-17T05:38:10;11.30;99.90
3001;DHT22;1510;51.072;6.678;2023-02-17T05:40:36;11.30;99.90
3001;DHT22;1510;51.072;6.678;2023-02-17T05:43:03;11.30;99.90
3001;DHT22;1510;51.072;6.678;2023-02-17T05:45:30;11.30;99.90
3001;DHT22;1510;51.072;6.678;2023-02-17T05:47:57;11.30;99.90
3001;DHT22;1510;51.072;6.678;2023-02-17T05:50:23;11.30;99.90
3001;DHT22;1510;51.072;6.678;2023-02-17T05:52:52;11.40;99.90
3001;DHT22;1510;51.072;6.678;2023-02-17T05:55:18;11.30;99.90
3001;DHT22;1510;51.072;6.678;2023-02-17T05:57:46;11.40;99.90
3001;DHT22;1510;51.072;6.678;2023-02-17T06:00:14;11.40;99.90
3001;DHT22;1510;51.072;6.678;2023-02-17T06:02:41;11.40;99.90
3001;DHT22;1510;51.072;6.678;2023-02-17T06:05:08;11.30;99.90
3001;DHT22;1510;51.072;6.678;2023-02-17T06:07:35;11.40;99.90
3001;DHT22;1510;51.072;6.678;2023-02-17T06:10:04;11.40;99.90
3001;DHT22;1510;51.072;6.678;2023-02-17T06:12:31;11.40;99.90
3001;DHT22;1510;51.072;6.678;2023-02-17T06:14:58;11.40;99.90
3001;DHT22;1510;51.072;6.678;2023-02-17T06:17:25;11.50;99.90
3001;DHT22;1510;51.072;6.678;2023-02-17T06:19:52;11.40;99.90
3001;DHT22;1510;51.072;6.678;2023-02-17T06:22:18;11.40;99.90
3001;DHT22;1510;51.072;6.678;2023-02-17T06:24:45;11.50;99.90
3001;DHT22;1510;51.072;6.678;2023-02-17T06:27:13;11.50;99.90
3001;DHT22;1510;51.072;6.678;2023-02-17T06:29:40;11.50;99.90
3001;DHT22;1510;51.072;6.678;2023-02-17T06:32:07;11.50;99.90
3001;DHT22;1510;51.072;6.678;2023-02-17T06:34:33;11.50;99.90
3001;DHT22;1510;51.072;6.678;2023-02-17T06:37:00;11.50;99.90
3001;DHT22;1510;51.072;6.678;2023-02-17T06:39:27;11.50;99.90
3001;DHT22;1510;51.072;6.678;2023-02-17T06:41:53;11.50;99.90
3001;DHT22;1510;51.072;6.678;2023-02-17T06:44:22;11.50;99.90
3001;DHT22;1510;51.072;6.678;2023-02-17T06:46:48;11.50;99.90
3001;DHT22;1510;51.072;6.678;2023-02-17T06:49:15;11.50;99.90
3001;DHT22;1510;51.072;6.678;2023-02-17T06:51:42;11.50;99.90
3001;DHT22;1510;51.072;6.678;2023-02-17T06:54:09;11.50;99.90
3001;DHT22;1510;51.072;6.678;2023-02-17T06:56:35;11.50;99.90
3001;DHT22;1510;51.072;6.678;2023-02-17T06:59:02;11.50;99.90
3001;DHT22;1510;51.072;6.678;2023-02-17T07:01:30;11.30;99.90
3001;DHT22;1510;51.072;6.678;2023-02-17T07:03:57;11.30;99.90
3001;DHT22;1510;51.072;6.678;2023-02-17T07:06:24;11.30;99.90
3001;DHT22;1510;51.072;6.678;2023-02-17T07:08:51;11.30;99.90
3001;DHT22;1510;51.072;6.678;2023-02-17T07:11:19;11.30;99.90
3001;DHT22;1510;51.072;6.678;2023-02-17T07:13:46;11.40;99.90
3001;DHT22;1510;51.072;6.678;2023-02-17T07:16:13;11.40;99.90
3001;DHT22;1510;51.072;6.678;2023-02-17T07:18:41;11.40;99.90
3001;DHT22;1510;51.072;6.678;2023-02-17T07:21:08;11.50;99.90
3001;DHT22;1510;51.072;6.678;2023-02-17T07:23:35;11.50;99.90
3001;DHT22;1510;51.072;6.678;2023-02-17T07:26:04;11.40;99.90
3001;DHT22;1510;51.072;6.678;2023-02-17T07:28:31;11.40;99.90
3001;DHT22;1510;51.072;6.678;2023-02-17T07:31:03;11.40;99.90
3001;DHT22;1510;51.072;6.678;2023-02-17T07:33:30;11.40;99.90
3001;DHT22;1510;51.072;6.678;2023-02-17T07:35:58;11.50;99.90
3001;DHT22;1510;51.072;6.678;2023-02-17T07:38:25;11.50;99.90
3001;DHT22;1510;51.072;6.678;2023-02-17T07:40:52;11.50;99.90
3001;DHT22;1510;51.072;6.678;2023-02-17T07:43:18;11.60;99.90
3001;DHT22;1510;51.072;6.678;2023-02-17T07:45:45;11.60;99.90
3001;DHT22;1510;51.072;6.678;2023-02-17T07:48:12;11.60;99.90
3001;DHT22;1510;51.072;6.678;2023-02-17T07:50:39;11.60;99.90
3001;DHT22;1510;51.072;6.678;2023-02-17T07:53:07;11.70;99.90
3001;DHT22;1510;51.072;6.678;2023-02-17T07:55:34;11.80;99.90
3001;DHT22;1510;51.072;6.678;2023-02-17T07:58:01;11.80;99.90
3001;DHT22;1510;51.072;6.678;2023-02-17T08:00:27;11.80;99.90
3001;DHT22;1510;51.072;6.678;2023-02-17T08:02:54;11.80;99.90
3001;DHT22;1510;51.072;6.678;2023-02-17T08:05:21;11.90;99.90
3001;DHT22;1510;51.072;6.678;2023-02-17T08:07:48;12.00;99.90
3001;DHT22;1510;51.072;6.678;2023-02-17T08:10:37;12.00;99.90
3001;DHT22;1510;51.072;6.678;2023-02-17T08:13:22;12.00;99.90
3001;DHT22;1510;51.072;6.678;2023-02-17T08:15:49;12.10;99.90
3001;DHT22;1510;51.072;6.678;2023-02-17T08:18:16;12.10;99.90
3001;DHT22;1510;51.072;6.678;2023-02-17T08:20:42;12.10;99.90
3001;DHT22;1510;51.072;6.678;2023-02-17T08:23:09;12.20;99.90
3001;DHT22;1510;51.072;6.678;2023-02-17T08:25:37;12.20;99.90
3001;DHT22;1510;51.072;6.678;2023-02-17T08:28:04;12.20;99.90
3001;DHT22;1510;51.072;6.678;2023-02-17T08:30:34;12.30;99.90
3001;DHT22;1510;51.072;6.678;2023-02-17T08:33:02;12.30;99.90
3001;DHT22;1510;51.072;6.678;2023-02-17T08:35:29;12.40;99.90
3001;DHT22;1510;51.072;6.678;2023-02-17T08:37:56;12.40;99.90
3001;DHT22;1510;51.072;6.678;2023-02-17T08:40:23;12.40;99.90
3001;DHT22;1510;51.072;6.678;2023-02-17T08:42:59;12.50;99.90
3001;DHT22;1510;51.072;6.678;2023-02-17T08:45:34;12.40;99.90
3001;DHT22;1510;51.072;6.678;2023-02-17T08:48:16;12.50;99.90
3001;DHT22;1510;51.072;6.678;2023-02-17T08:50:58;12.60;99.90
3001;DHT22;1510;51.072;6.678;2023-02-17T08:53:33;12.50;99.90
3001;DHT22;1510;51.072;6.678;2023-02-17T08:56:12;12.70;99.90
3001;DHT22;1510;51.072;6.678;2023-02-17T08:58:50;12.80;99.90
3001;DHT22;1510;51.072;6.678;2023-02-17T09:01:21;12.90;99.90
3001;DHT22;1510;51.072;6.678;2023-02-17T09:03:56;12.90;99.90
3001;DHT22;1510;51.072;6.678;2023-02-17T09:06:42;12.90;99.90
3001;DHT22;1510;51.072;6.678;2023-02-17T09:09:15;13.10;99.90
3001;DHT22;1510;51.072;6.678;2023-02-17T09:11:48;13.10;99.90
3001;DHT22;1510;51.072;6.678;2023-02-17T09:14:22;13.30;99.90
3001;DHT22;1510;51.072;6.678;2023-02-17T09:17:05;13.20;99.90
3001;DHT22;1510;51.072;6.678;2023-02-17T09:19:41;13.30;99.90
3001;DHT22;1510;51.072;6.678;2023-02-17T09:22:19;13.30;99.90
3001;DHT22;1510;51.072;6.678;2023-02-17T09:24:50;13.50;99.90
3001;DHT22;1510;51.072;6.678;2023-02-17T09:27:30;13.50;99.90
3001;DHT22;1510;51.072;6.678;2023-02-17T09:30:17;13.60;99.90
3001;DHT22;1510;51.072;6.678;2023-02-17T09:32:48;13.60;99.90
3001;DHT22;1510;51.072;6.678;2023-02-17T09:35:19;13.70;99.90
3001;DHT22;1510;51.072;6.678;2023-02-17T09:37:57;13.70;99.90
3001;DHT22;1510;51.072;6.678;2023-02-17T09:40:37;13.80;99.90
3001;DHT22;1510;51.072;6.678;2023-02-17T09:43:22;13.90;99.90
3001;DHT22;1510;51.072;6.678;2023-02-17T09:45:58;13.80;99.90
3001;DHT22;1510;51.072;6.678;2023-02-17T09:48:41;13.90;99.90
3001;DHT22;1510;51.072;6.678;2023-02-17T09:51:20;14.00;99.90
3001;DHT22;1510;51.072;6.678;2023-02-17T09:53:57;14.00;99.90
3001;DHT22;1510;51.072;6.678;2023-02-17T09:56:36;14.20;99.90
3001;DHT22;1510;51.072;6.678;2023-02-17T09:59:10;14.20;99.90
3001;DHT22;1510;51.072;6.678;2023-02-17T10:01:45;14.40;99.90
3001;DHT22;1510;51.072;6.678;2023-02-17T10:04:16;14.30;99.90
3001;DHT22;1510;51.072;6.678;2023-02-17T10:06:55;14.50;99.90
3001;DHT22;1510;51.072;6.678;2023-02-17T10:09:31;14.30;99.90
3001;DHT22;1510;51.072;6.678;2023-02-17T10:12:13;14.50;99.90
3001;DHT22;1510;51.072;6.678;2023-02-17T10:14:47;14.40;99.90
3001;DHT22;1510;51.072;6.678;2023-02-17T10:17:23;14.60;99.90
3001;DHT22;1510;51.072;6.678;2023-02-17T10:20:04;14.60;99.90
3001;DHT22;1510;51.072;6.678;2023-02-17T10:22:35;14.90;99.90
3001;DHT22;1510;51.072;6.678;2023-02-17T10:25:14;14.80;99.90
3001;DHT22;1510;51.072;6.678;2023-02-17T10:27:46;14.90;99.90
3001;DHT22;1510;51.072;6.678;2023-02-17T10:30:23;15.10;99.90
3001;DHT22;1510;51.072;6.678;2023-02-17T10:33:11;15.20;99.90
3001;DHT22;1510;51.072;6.678;2023-02-17T10:35:48;15.60;99.90
3001;DHT22;1510;51.072;6.678;2023-02-17T10:38:17;15.80;99.90
3001;DHT22;1510;51.072;6.678;2023-02-17T10:40:49;15.70;99.90
3001;DHT22;1510;51.072;6.678;2023-02-17T10:43:21;15.60;99.90
3001;DHT22;1510;51.072;6.678;2023-02-17T10:45:50;15.50;99.90
3001;DHT22;1510;51.072;6.678;2023-02-17T10:48:21;15.40;99.90
3001;DHT22;1510;51.072;6.678;2023-02-17T10:50:49;15.40;99.90
3001;DHT22;1510;51.072;6.678;2023-02-17T10:53:17;15.30;99.90
3001;DHT22;1510;51.072;6.678;2023-02-17T10:55:53;15.20;99.90
3001;DHT22;1510;51.072;6.678;2023-02-17T10:58:24;15.20;99.90
3001;DHT22;1510;51.072;6.678;2023-02-17T11:00:54;15.10;99.90
3001;DHT22;1510;51.072;6.678;2023-02-17T11:03:25;14.90;99.90
3001;DHT22;1510;51.072;6.678;2023-02-17T11:05:54;14.80;99.90
3001;DHT22;1510;51.072;6.678;2023-02-17T11:08:28;14.80;99.90
3001;DHT22;1510;51.072;6.678;2023-02-17T11:11:01;14.80;99.90
3001;DHT22;1510;51.072;6.678;2023-02-17T11:13:32;14.90;99.90
3001;DHT22;1510;51.072;6.678;2023-02-17T11:15:59;14.90;99.90
3001;DHT22;1510;51.072;6.678;2023-02-17T11:18:31;15.10;99.90
3001;DHT22;1510;51.072;6.678;2023-02-17T11:21:00;15.00;99.90
3001;DHT22;1510;51.072;6.678;2023-02-17T11:23:27;15.20;99.90
3001;DHT22;1510;51.072;6.678;2023-02-17T11:25:59;15.10;99.90
3001;DHT22;1510;51.072;6.678;2023-02-17T11:28:26;15.00;99.90
3001;DHT22;1510;51.072;6.678;2023-02-17T11:30:55;15.10;99.90
3001;DHT22;1510;51.072;6.678;2023-02-17T11:33:35;15.30;99.90
3001;DHT22;1510;51.072;6.678;2023-02-17T11:36:03;15.40;99.90
3001;DHT22;1510;51.072;6.678;2023-02-17T11:38:41;15.60;99.90
3001;DHT22;1510;51.072;6.678;2023-02-17T11:41:09;15.60;99.90
3001;DHT22;1510;51.072;6.678;2023-02-17T11:43:36;15.60;99.90
3001;DHT22;1510;51.072;6.678;2023-02-17T11:46:23;15.60;99.90
3001;DHT22;1510;51.072;6.678;2023-02-17T11:49:11;15.70;99.90
3001;DHT22;1510;51.072;6.678;2023-02-17T11:51:52;15.90;99.90
3001;DHT22;1510;51.072;6.678;2023-02-17T11:54:23;15.80;99.90
3001;DHT22;1510;51.072;6.678;2023-02-17T11:56:59;15.70;99.90
3001;DHT22;1510;51.072;6.678;2023-02-17T11:59:39;15.80;99.90
3001;DHT22;1510;51.072;6.678;2023-02-17T12:02:18;15.90;99.90
3001;DHT22;1510;51.072;6.678;2023-02-17T12:04:59;15.90;99.90
3001;DHT22;1510;51.072;6.678;2023-02-17T12:07:57;16.00;99.90
3001;DHT22;1510;51.072;6.678;2023-02-17T12:10:34;15.90;99.90
3001;DHT22;1510;51.072;6.678;2023-02-17T12:13:16;15.90;99.90
3001;DHT22;1510;51.072;6.678;2023-02-17T12:15:55;15.80;99.90
3001;DHT22;1510;51.072;6.678;2023-02-17T12:18:36;15.50;99.90
3001;DHT22;1510;51.072;6.678;2023-02-17T12:21:14;15.50;99.90
3001;DHT22;1510;51.072;6.678;2023-02-17T12:23:59;15.40;99.90
3001;DHT22;1510;51.072;6.678;2023-02-17T12:26:35;15.50;99.90
3001;DHT22;1510;51.072;6.678;2023-02-17T12:29:27;15.60;99.90
3001;DHT22;1510;51.072;6.678;2023-02-17T12:32:05;15.40;99.90
3001;DHT22;1510;51.072;6.678;2023-02-17T12:34:38;15.40;99.90
3001;DHT22;1510;51.072;6.678;2023-02-17T12:37:16;15.40;99.90
3001;DHT22;1510;51.072;6.678;2023-02-17T12:39:47;15.50;99.90
3001;DHT22;1510;51.072;6.678;2023-02-17T12:42:18;15.90;99.90
3001;DHT22;1510;51.072;6.678;2023-02-17T12:44:49;16.80;99.90
3001;DHT22;1510;51.072;6.678;2023-02-17T12:47:22;16.80;99.90
3001;DHT22;1510;51.072;6.678;2023-02-17T12:49:54;16.70;99.90
3001;DHT22;1510;51.072;6.678;2023-02-17T12:52:26;16.60;99.90
3001;DHT22;1510;51.072;6.678;2023-02-17T12:54:56;16.40;99.90
3001;DHT22;1510;51.072;6.678;2023-02-17T12:57:28;16.30;99.90
3001;DHT22;1510;51.072;6.678;2023-02-17T12:59:59;16.40;99.90
3001;DHT22;1510;51.072;6.678;2023-02-17T13:02:27;16.30;99.90
3001;DHT22;1510;51.072;6.678;2023-02-17T13:04:58;16.30;99.90
3001;DHT22;1510;51.072;6.678;2023-02-17T13:07:39;16.20;99.90
3001;DHT22;1510;51.072;6.678;2023-02-17T13:10:18;16.30;99.90
3001;DHT22;1510;51.072;6.678;2023-02-17T13:12:56;16.10;99.90
3001;DHT22;1510;51.072;6.678;2023-02-17T13:15:27;16.00;99.90
3001;DHT22;1510;51.072;6.678;2023-02-17T13:17:55;16.00;99.90
3001;DHT22;1510;51.072;6.678;2023-02-17T13:20:55;16.20;99.90
3001;DHT22;1510;51.072;6.678;2023-02-17T13:23:30;16.10;99.90
3001;DHT22;1510;51.072;6.678;2023-02-17T13:29:09;16.00;99.90
3001;DHT22;1510;51.072;6.678;2023-02-17T13:31:49;16.00;99.90
3001;DHT22;1510;51.072;6.678;2023-02-17T13:34:25;15.80;99.90
3001;DHT22;1510;51.072;6.678;2023-02-17T13:36:52;15.60;99.90
3001;DHT22;1510;51.072;6.678;2023-02-17T13:39:35;15.60;99.90
3001;DHT22;1510;51.072;6.678;2023-02-17T13:42:03;15.50;99.90
3001;DHT22;1510;51.072;6.678;2023-02-17T13:44:50;15.40;99.90
3001;DHT22;1510;51.072;6.678;2023-02-17T13:47:21;15.30;99.90
3001;DHT22;1510;51.072;6.678;2023-02-17T13:49:51;15.30;99.90
3001;DHT22;1510;51.072;6.678;2023-02-17T13:52:23;15.10;99.90
3001;DHT22;1510;51.072;6.678;2023-02-17T13:54:53;15.10;99.90
3001;DHT22;1510;51.072;6.678;2023-02-17T13:57:25;15.10;99.90
3001;DHT22;1510;51.072;6.678;2023-02-17T14:00:02;15.00;99.90
3001;DHT22;1510;51.072;6.678;2023-02-17T14:02:29;15.00;99.90
3001;DHT22;1510;51.072;6.678;2023-02-17T14:04:56;15.00;99.90
3001;DHT22;1510;51.072;6.678;2023-02-17T14:07:23;15.00;99.90
3001;DHT22;1510;51.072;6.678;2023-02-17T14:09:53;15.10;99.90
3001;DHT22;1510;51.072;6.678;2023-02-17T14:12:22;15.20;99.90
3001;DHT22;1510;51.072;6.678;2023-02-17T14:14:49;15.20;99.90
3001;DHT22;1510;51.072;6.678;2023-02-17T14:17:27;15.30;99.90
3001;DHT22;1510;51.072;6.678;2023-02-17T14:19:55;15.30;99.90
3001;DHT22;1510;51.072;6.678;2023-02-17T14:22:24;15.50;99.90
3001;DHT22;1510;51.072;6.678;2023-02-17T14:25:02;15.60;99.90
3001;DHT22;1510;51.072;6.678;2023-02-17T14:27:40;15.70;99.90
3001;DHT22;1510;51.072;6.678;2023-02-17T14:30:12;15.60;99.90
3001;DHT22;1510;51.072;6.678;2023-02-17T14:32:39;15.60;99.90
3001;DHT22;1510;51.072;6.678;2023-02-17T14:35:20;15.50;99.90
3001;DHT22;1510;51.072;6.678;2023-02-17T14:37:47;15.40;99.90
3001;DHT22;1510;51.072;6.678;2023-02-17T14:40:18;15.20;99.90
3001;DHT22;1510;51.072;6.678;2023-02-17T14:42:45;15.00;99.90
3001;DHT22;1510;51.072;6.678;2023-02-17T14:45:12;14.90;99.90
3001;DHT22;1510;51.072;6.678;2023-02-17T14:47:39;14.80;99.90
3001;DHT22;1510;51.072;6.678;2023-02-17T14:50:07;14.70;99.90
3001;DHT22;1510;51.072;6.678;2023-02-17T14:52:39;14.70;99.90
3001;DHT22;1510;51.072;6.678;2023-02-17T14:55:12;14.60;99.90
3001;DHT22;1510;51.072;6.678;2023-02-17T14:57:42;14.50;99.90
3001;DHT22;1510;51.072;6.678;2023-02-17T15:00:11;14.50;99.90
3001;DHT22;1510;51.072;6.678;2023-02-17T15:02:38;14.40;99.90
3001;DHT22;1510;51.072;6.678;2023-02-17T15:05:05;14.30;99.90
3001;DHT22;1510;51.072;6.678;2023-02-17T15:07:32;14.30;99.90
3001;DHT22;1510;51.072;6.678;2023-02-17T15:09:59;14.20;99.90
3001;DHT22;1510;51.072;6.678;2023-02-17T15:12:26;14.20;99.90
3001;DHT22;1510;51.072;6.678;2023-02-17T15:14:54;14.10;99.90
3001;DHT22;1510;51.072;6.678;2023-02-17T15:17:21;14.00;99.90
3001;DHT22;1510;51.072;6.678;2023-02-17T15:19:48;14.00;99.90
3001;DHT22;1510;51.072;6.678;2023-02-17T15:22:14;14.00;99.90
3001;DHT22;1510;51.072;6.678;2023-02-17T15:24:41;14.00;99.90
3001;DHT22;1510;51.072;6.678;2023-02-17T15:27:12;13.90;99.90
3001;DHT22;1510;51.072;6.678;2023-02-17T15:29:39;13.90;99.90
3001;DHT22;1510;51.072;6.678;2023-02-17T15:32:14;13.90;99.90
3001;DHT22;1510;51.072;6.678;2023-02-17T15:34:42;13.80;99.90
3001;DHT22;1510;51.072;6.678;2023-02-17T15:37:09;13.80;99.90
3001;DHT22;1510;51.072;6.678;2023-02-17T15:39:36;13.70;99.90
3001;DHT22;1510;51.072;6.678;2023-02-17T15:42:06;13.60;99.90
3001;DHT22;1510;51.072;6.678;2023-02-17T15:44:39;13.60;99.90
3001;DHT22;1510;51.072;6.678;2023-02-17T15:47:12;13.60;99.90
3001;DHT22;1510;51.072;6.678;2023-02-17T15:49:39;13.50;99.90
3001;DHT22;1510;51.072;6.678;2023-02-17T15:52:08;13.50;99.90
3001;DHT22;1510;51.072;6.678;2023-02-17T15:54:37;13.40;99.90
3001;DHT22;1510;51.072;6.678;2023-02-17T15:57:05;13.40;99.90
3001;DHT22;1510;51.072;6.678;2023-02-17T15:59:32;13.30;99.90
3001;DHT22;1510;51.072;6.678;2023-02-17T16:01:59;13.20;99.90
3001;DHT22;1510;51.072;6.678;2023-02-17T16:04:28;13.10;99.90
3001;DHT22;1510;51.072;6.678;2023-02-17T16:06:54;13.00;99.90
3001;DHT22;1510;51.072;6.678;2023-02-17T16:09:21;12.80;99.90
3001;DHT22;1510;51.072;6.678;2023-02-17T16:11:49;12.50;99.90
3001;DHT22;1510;51.072;6.678;2023-02-17T16:14:23;12.40;99.90
3001;DHT22;1510;51.072;6.678;2023-02-17T16:16:51;12.30;99.90
3001;DHT22;1510;51.072;6.678;2023-02-17T16:19:17;12.20;99.90
3001;DHT22;1510;51.072;6.678;2023-02-17T16:21:45;12.10;99.90
3001;DHT22;1510;51.072;6.678;2023-02-17T16:24:12;12.00;99.90
3001;DHT22;1510;51.072;6.678;2023-02-17T16:26:39;11.90;99.90
3001;DHT22;1510;51.072;6.678;2023-02-17T16:29:12;11.90;99.90
3001;DHT22;1510;51.072;6.678;2023-02-17T16:31:39;11.80;99.90
3001;DHT22;1510;51.072;6.678;2023-02-17T16:34:06;11.80;99.90